sensor_id;sensor_type;location;lat;lon;timestamp;P1;durP1;ratioP1;P2;durP2;ratioP2
64959;SDS011;51487;52.266;10.542;2024-01-16T00:00:06;3.53;;;1.88;;
64959;SDS011;51487;52.266;10.542;2024-01-16T00:02:34;4.25;;;2.10;;
64959;SDS011;51487;52.266;10.542;2024-01-16T00:04:59;4.20;;;2.00;;
64959;SDS011;51487;52.266;10.542;2024-01-16T00:07:25;3.33;;;2.17;;
64959;SDS011;51487;52.266;10.542;2024-01-16T00:09:50;3.28;;;2.08;;
64959;SDS011;51487;52.266;10.542;2024-01-16T00:12:18;3.22;;;2.20;;
64959;SDS011;51487;52.266;10.542;2024-01-16T00:14:44;5.53;;;2.67;;
64959;SDS011;51487;52.266;10.542;2024-01-16T00:17:09;4.30;;;2.22;;
64959;SDS011;51487;52.266;10.542;2024-01-16T00:19:35;5.43;;;2.47;;
64959;SDS011;51487;52.266;10.542;2024-01-16T00:22:00;5.25;;;2.17;;
64959;SDS011;51487;52.266;10.542;2024-01-16T00:24:27;5.15;;;2.70;;
64959;SDS011;51487;52.266;10.542;2024-01-16T00:26:53;4.97;;;2.05;;
64959;SDS011;51487;52.266;10.542;2024-01-16T00:29:18;3.55;;;2.25;;
64959;SDS011;51487;52.266;10.542;2024-01-16T00:31:44;2.85;;;1.98;;
64959;SDS011;51487;52.266;10.542;2024-01-16T00:34:09;7.30;;;2.63;;
64959;SDS011;51487;52.266;10.542;2024-01-16T00:36:35;6.10;;;2.67;;
64959;SDS011;51487;52.266;10.542;2024-01-16T00:39:00;3.03;;;2.20;;
64959;SDS011;51487;52.266;10.542;2024-01-16T00:41:27;6.78;;;2.67;;
64959;SDS011;51487;52.266;10.542;2024-01-16T00:43:53;3.13;;;1.90;;
64959;SDS011;51487;52.266;10.542;2024-01-16T00:46:19;3.30;;;1.77;;
64959;SDS011;51487;52.266;10.542;2024-01-16T00:48:45;5.95;;;2.17;;
64959;SDS011;51487;52.266;10.542;2024-01-16T00:51:11;4.70;;;1.92;;
64959;SDS011;51487;52.266;10.542;2024-01-16T00:53:42;2.90;;;2.00;;
64959;SDS011;51487;52.266;10.542;2024-01-16T00:56:09;3.22;;;2.08;;
64959;SDS011;51487;52.266;10.542;2024-01-16T00:58:37;4.05;;;1.88;;
64959;SDS011;51487;52.266;10.542;2024-01-16T01:01:03;2.72;;;1.90;;
64959;SDS011;51487;52.266;10.542;2024-01-16T01:03:29;4.57;;;2.63;;
64959;SDS011;51487;52.266;10.542;2024-01-16T01:05:55;7.32;;;2.20;;
64959;SDS011;51487;52.266;10.542;2024-01-16T01:08:20;2.45;;;2.00;;
64959;SDS011;51487;52.266;10.542;2024-01-16T01:10:46;2.30;;;2.08;;
64959;SDS011;51487;52.266;10.542;2024-01-16T01:13:12;2.17;;;1.98;;
64959;SDS011;51487;52.266;10.542;2024-01-16T01:15:38;6.25;;;2.20;;
64959;SDS011;51487;52.266;10.542;2024-01-16T01:18:03;4.07;;;2.15;;
64959;SDS011;51487;52.266;10.542;2024-01-16T01:20:29;3.38;;;2.00;;
64959;SDS011;51487;52.266;10.542;2024-01-16T01:22:55;4.13;;;2.22;;
64959;SDS011;51487;52.266;10.542;2024-01-16T01:25:20;5.35;;;1.98;;
64959;SDS011;51487;52.266;10.542;2024-01-16T01:27:46;3.60;;;2.25;;
64959;SDS011;51487;52.266;10.542;2024-01-16T01:30:12;2.63;;;1.80;;
64959;SDS011;51487;52.266;10.542;2024-01-16T01:32:38;4.13;;;2.00;;
64959;SDS011;51487;52.266;10.542;2024-01-16T01:35:04;3.13;;;2.20;;
64959;SDS011;51487;52.266;10.542;2024-01-16T01:37:31;4.15;;;2.28;;
64959;SDS011;51487;52.266;10.542;2024-01-16T01:39:57;3.40;;;2.20;;
64959;SDS011;51487;52.266;10.542;2024-01-16T01:42:22;3.25;;;2.13;;
64959;SDS011;51487;52.266;10.542;2024-01-16T01:44:48;2.97;;;2.10;;
64959;SDS011;51487;52.266;10.542;2024-01-16T01:47:13;3.83;;;2.10;;
64959;SDS011;51487;52.266;10.542;2024-01-16T01:49:39;3.45;;;2.00;;
64959;SDS011;51487;52.266;10.542;2024-01-16T01:52:06;4.75;;;2.60;;
64959;SDS011;51487;52.266;10.542;2024-01-16T01:54:33;2.45;;;1.90;;
64959;SDS011;51487;52.266;10.542;2024-01-16T01:57:02;2.38;;;1.73;;
64959;SDS011;51487;52.266;10.542;2024-01-16T01:59:31;2.88;;;1.80;;
64959;SDS011;51487;52.266;10.542;2024-01-16T02:01:58;4.60;;;1.80;;
64959;SDS011;51487;52.266;10.542;2024-01-16T02:04:24;2.80;;;1.70;;
64959;SDS011;51487;52.266;10.542;2024-01-16T02:06:52;1.75;;;1.65;;
64959;SDS011;51487;52.266;10.542;2024-01-16T02:09:19;3.42;;;1.67;;
64959;SDS011;51487;52.266;10.542;2024-01-16T02:11:45;2.45;;;1.60;;
64959;SDS011;51487;52.266;10.542;2024-01-16T02:14:10;2.05;;;1.50;;
64959;SDS011;51487;52.266;10.542;2024-01-16T02:16:37;2.53;;;1.85;;
64959;SDS011;51487;52.266;10.542;2024-01-16T02:19:05;1.58;;;1.45;;
64959;SDS011;51487;52.266;10.542;2024-01-16T02:21:33;2.80;;;1.60;;
64959;SDS011;51487;52.266;10.542;2024-01-16T02:24:13;3.93;;;2.13;;
64959;SDS011;51487;52.266;10.542;2024-01-16T02:26:40;2.42;;;1.50;;
64959;SDS011;51487;52.266;10.542;2024-01-16T02:29:06;3.17;;;2.03;;
64959;SDS011;51487;52.266;10.542;2024-01-16T02:31:32;5.82;;;2.45;;
64959;SDS011;51487;52.266;10.542;2024-01-16T02:33:58;3.55;;;2.00;;
64959;SDS011;51487;52.266;10.542;2024-01-16T02:36:25;3.33;;;2.13;;
64959;SDS011;51487;52.266;10.542;2024-01-16T02:38:52;2.50;;;2.25;;
64959;SDS011;51487;52.266;10.542;2024-01-16T02:41:18;2.53;;;2.08;;
64959;SDS011;51487;52.266;10.542;2024-01-16T02:43:44;2.63;;;1.75;;
64959;SDS011;51487;52.266;10.542;2024-01-16T02:46:10;4.35;;;2.20;;
64959;SDS011;51487;52.266;10.542;2024-01-16T02:48:36;3.75;;;2.28;;
64959;SDS011;51487;52.266;10.542;2024-01-16T02:51:02;2.70;;;1.90;;
64959;SDS011;51487;52.266;10.542;2024-01-16T02:53:29;2.72;;;2.10;;
64959;SDS011;51487;52.266;10.542;2024-01-16T02:55:55;4.10;;;2.05;;
64959;SDS011;51487;52.266;10.542;2024-01-16T02:58:23;2.20;;;1.98;;
64959;SDS011;51487;52.266;10.542;2024-01-16T03:00:50;3.72;;;2.20;;
64959;SDS011;51487;52.266;10.542;2024-01-16T03:03:16;3.50;;;1.90;;
64959;SDS011;51487;52.266;10.542;2024-01-16T03:05:42;2.08;;;1.85;;
64959;SDS011;51487;52.266;10.542;2024-01-16T03:08:07;2.22;;;1.75;;
64959;SDS011;51487;52.266;10.542;2024-01-16T03:10:33;4.22;;;2.10;;
64959;SDS011;51487;52.266;10.542;2024-01-16T03:12:58;3.13;;;1.90;;
64959;SDS011;51487;52.266;10.542;2024-01-16T03:15:24;4.15;;;1.90;;
64959;SDS011;51487;52.266;10.542;2024-01-16T03:17:49;3.30;;;1.95;;
64959;SDS011;51487;52.266;10.542;2024-01-16T03:20:15;3.90;;;2.00;;
64959;SDS011;51487;52.266;10.542;2024-01-16T03:22:43;4.10;;;1.90;;
64959;SDS011;51487;52.266;10.542;2024-01-16T03:25:09;3.13;;;1.98;;
64959;SDS011;51487;52.266;10.542;2024-01-16T03:27:38;3.05;;;1.90;;
64959;SDS011;51487;52.266;10.542;2024-01-16T03:30:04;4.63;;;1.80;;
64959;SDS011;51487;52.266;10.542;2024-01-16T03:32:31;4.47;;;2.00;;
64959;SDS011;51487;52.266;10.542;2024-01-16T03:34:57;4.15;;;1.88;;
64959;SDS011;51487;52.266;10.542;2024-01-16T03:37:23;5.97;;;2.15;;
64959;SDS011;51487;52.266;10.542;2024-01-16T03:39:49;2.47;;;1.80;;
64959;SDS011;51487;52.266;10.542;2024-01-16T03:42:15;5.70;;;1.88;;
64959;SDS011;51487;52.266;10.542;2024-01-16T03:44:41;3.38;;;1.80;;
64959;SDS011;51487;52.266;10.542;2024-01-16T03:47:07;2.90;;;1.75;;
64959;SDS011;51487;52.266;10.542;2024-01-16T03:49:34;3.13;;;2.00;;
64959;SDS011;51487;52.266;10.542;2024-01-16T03:52:00;3.22;;;2.28;;
64959;SDS011;51487;52.266;10.542;2024-01-16T03:54:26;3.03;;;1.95;;
64959;SDS011;51487;52.266;10.542;2024-01-16T03:56:51;4.20;;;2.40;;
64959;SDS011;51487;52.266;10.542;2024-01-16T03:59:18;3.42;;;2.00;;
64959;SDS011;51487;52.266;10.542;2024-01-16T04:01:43;4.40;;;2.10;;
64959;SDS011;51487;52.266;10.542;2024-01-16T04:04:10;3.63;;;1.80;;
64959;SDS011;51487;52.266;10.542;2024-01-16T04:06:36;4.25;;;2.00;;
64959;SDS011;51487;52.266;10.542;2024-01-16T04:09:02;4.60;;;2.10;;
64959;SDS011;51487;52.266;10.542;2024-01-16T04:11:28;2.10;;;1.88;;
64959;SDS011;51487;52.266;10.542;2024-01-16T04:13:54;3.28;;;2.10;;
64959;SDS011;51487;52.266;10.542;2024-01-16T04:16:20;5.60;;;2.10;;
64959;SDS011;51487;52.266;10.542;2024-01-16T04:18:46;6.65;;;2.30;;
64959;SDS011;51487;52.266;10.542;2024-01-16T04:21:12;4.97;;;2.00;;
64959;SDS011;51487;52.266;10.542;2024-01-16T04:23:38;3.45;;;2.08;;
64959;SDS011;51487;52.266;10.542;2024-01-16T04:26:03;7.00;;;1.90;;
64959;SDS011;51487;52.266;10.542;2024-01-16T04:28:29;4.82;;;2.15;;
64959;SDS011;51487;52.266;10.542;2024-01-16T04:30:54;4.45;;;2.05;;
64959;SDS011;51487;52.266;10.542;2024-01-16T04:33:20;4.85;;;2.28;;
64959;SDS011;51487;52.266;10.542;2024-01-16T04:35:46;4.63;;;2.28;;
64959;SDS011;51487;52.266;10.542;2024-01-16T04:38:11;4.47;;;2.40;;
64959;SDS011;51487;52.266;10.542;2024-01-16T04:40:37;4.53;;;2.58;;
64959;SDS011;51487;52.266;10.542;2024-01-16T04:43:02;4.00;;;2.45;;
64959;SDS011;51487;52.266;10.542;2024-01-16T04:45:28;7.10;;;2.40;;
64959;SDS011;51487;52.266;10.542;2024-01-16T04:47:54;4.93;;;2.20;;
64959;SDS011;51487;52.266;10.542;2024-01-16T04:50:19;4.45;;;2.10;;
64959;SDS011;51487;52.266;10.542;2024-01-16T04:52:44;4.35;;;2.33;;
64959;SDS011;51487;52.266;10.542;2024-01-16T04:55:10;3.65;;;2.13;;
64959;SDS011;51487;52.266;10.542;2024-01-16T04:57:36;5.90;;;2.40;;
64959;SDS011;51487;52.266;10.542;2024-01-16T05:00:02;2.90;;;2.00;;
64959;SDS011;51487;52.266;10.542;2024-01-16T05:02:32;5.07;;;2.33;;
64959;SDS011;51487;52.266;10.542;2024-01-16T05:04:59;4.65;;;1.95;;
64959;SDS011;51487;52.266;10.542;2024-01-16T05:07:24;5.35;;;1.95;;
64959;SDS011;51487;52.266;10.542;2024-01-16T05:09:51;4.47;;;2.00;;
64959;SDS011;51487;52.266;10.542;2024-01-16T05:12:17;4.28;;;2.50;;
64959;SDS011;51487;52.266;10.542;2024-01-16T05:14:42;4.00;;;2.15;;
64959;SDS011;51487;52.266;10.542;2024-01-16T05:17:08;5.43;;;2.42;;
64959;SDS011;51487;52.266;10.542;2024-01-16T05:19:33;5.57;;;2.30;;
64959;SDS011;51487;52.266;10.542;2024-01-16T05:21:59;5.00;;;2.10;;
64959;SDS011;51487;52.266;10.542;2024-01-16T05:24:24;7.45;;;2.60;;
64959;SDS011;51487;52.266;10.542;2024-01-16T05:26:50;5.15;;;2.42;;
64959;SDS011;51487;52.266;10.542;2024-01-16T05:29:16;5.93;;;2.58;;
64959;SDS011;51487;52.266;10.542;2024-01-16T05:31:43;5.55;;;2.10;;
64959;SDS011;51487;52.266;10.542;2024-01-16T05:34:09;8.00;;;2.45;;
64959;SDS011;51487;52.266;10.542;2024-01-16T05:36:36;7.03;;;2.40;;
64959;SDS011;51487;52.266;10.542;2024-01-16T05:39:02;6.07;;;2.65;;
64959;SDS011;51487;52.266;10.542;2024-01-16T05:41:31;7.45;;;2.40;;
64959;SDS011;51487;52.266;10.542;2024-01-16T05:43:58;9.27;;;2.50;;
64959;SDS011;51487;52.266;10.542;2024-01-16T05:46:24;8.48;;;2.78;;
64959;SDS011;51487;52.266;10.542;2024-01-16T05:48:49;6.88;;;2.80;;
64959;SDS011;51487;52.266;10.542;2024-01-16T05:51:15;8.30;;;2.55;;
64959;SDS011;51487;52.266;10.542;2024-01-16T05:53:40;9.63;;;2.47;;
64959;SDS011;51487;52.266;10.542;2024-01-16T05:56:06;5.70;;;2.42;;
64959;SDS011;51487;52.266;10.542;2024-01-16T05:58:32;7.22;;;2.70;;
64959;SDS011;51487;52.266;10.542;2024-01-16T06:01:03;4.70;;;2.17;;
64959;SDS011;51487;52.266;10.542;2024-01-16T06:03:32;11.23;;;3.03;;
64959;SDS011;51487;52.266;10.542;2024-01-16T06:05:57;6.57;;;2.70;;
64959;SDS011;51487;52.266;10.542;2024-01-16T06:08:23;6.30;;;2.63;;
64959;SDS011;51487;52.266;10.542;2024-01-16T06:10:50;8.40;;;2.60;;
64959;SDS011;51487;52.266;10.542;2024-01-16T06:13:16;6.03;;;2.72;;
64959;SDS011;51487;52.266;10.542;2024-01-16T06:15:43;7.40;;;2.97;;
64959;SDS011;51487;52.266;10.542;2024-01-16T06:18:09;3.33;;;2.13;;
64959;SDS011;51487;52.266;10.542;2024-01-16T06:20:35;6.20;;;2.70;;
64959;SDS011;51487;52.266;10.542;2024-01-16T06:23:00;6.80;;;2.33;;
64959;SDS011;51487;52.266;10.542;2024-01-16T06:25:26;9.70;;;2.97;;
64959;SDS011;51487;52.266;10.542;2024-01-16T06:27:51;6.05;;;2.70;;
64959;SDS011;51487;52.266;10.542;2024-01-16T06:30:17;8.70;;;2.50;;
64959;SDS011;51487;52.266;10.542;2024-01-16T06:32:42;4.40;;;2.42;;
64959;SDS011;51487;52.266;10.542;2024-01-16T06:35:08;5.68;;;2.20;;
64959;SDS011;51487;52.266;10.542;2024-01-16T06:37:33;6.93;;;2.80;;
64959;SDS011;51487;52.266;10.542;2024-01-16T06:39:59;5.93;;;2.63;;
64959;SDS011;51487;52.266;10.542;2024-01-16T06:42:25;12.60;;;3.15;;
64959;SDS011;51487;52.266;10.542;2024-01-16T06:44:50;7.47;;;2.88;;
64959;SDS011;51487;52.266;10.542;2024-01-16T06:47:15;8.52;;;2.80;;
64959;SDS011;51487;52.266;10.542;2024-01-16T06:49:41;4.25;;;2.78;;
64959;SDS011;51487;52.266;10.542;2024-01-16T06:52:07;6.97;;;2.78;;
64959;SDS011;51487;52.266;10.542;2024-01-16T06:54:34;6.15;;;2.70;;
64959;SDS011;51487;52.266;10.542;2024-01-16T06:57:00;6.30;;;2.63;;
64959;SDS011;51487;52.266;10.542;2024-01-16T06:59:25;9.20;;;3.35;;
64959;SDS011;51487;52.266;10.542;2024-01-16T07:01:51;6.25;;;2.75;;
64959;SDS011;51487;52.266;10.542;2024-01-16T07:04:16;7.05;;;2.80;;
64959;SDS011;51487;52.266;10.542;2024-01-16T07:06:42;7.82;;;3.05;;
64959;SDS011;51487;52.266;10.542;2024-01-16T07:09:08;7.63;;;3.08;;
64959;SDS011;51487;52.266;10.542;2024-01-16T07:11:36;5.43;;;2.83;;
64959;SDS011;51487;52.266;10.542;2024-01-16T07:14:03;4.75;;;2.58;;
64959;SDS011;51487;52.266;10.542;2024-01-16T07:16:28;9.05;;;2.95;;
64959;SDS011;51487;52.266;10.542;2024-01-16T07:18:54;6.90;;;2.70;;
64959;SDS011;51487;52.266;10.542;2024-01-16T07:21:20;5.45;;;2.42;;
64959;SDS011;51487;52.266;10.542;2024-01-16T07:23:46;6.95;;;3.10;;
64959;SDS011;51487;52.266;10.542;2024-01-16T07:26:12;5.68;;;2.70;;
64959;SDS011;51487;52.266;10.542;2024-01-16T07:28:38;7.65;;;3.13;;
64959;SDS011;51487;52.266;10.542;2024-01-16T07:31:04;5.50;;;2.88;;
64959;SDS011;51487;52.266;10.542;2024-01-16T07:33:30;7.22;;;2.50;;
64959;SDS011;51487;52.266;10.542;2024-01-16T07:35:57;5.50;;;2.50;;
64959;SDS011;51487;52.266;10.542;2024-01-16T07:38:23;6.28;;;2.67;;
64959;SDS011;51487;52.266;10.542;2024-01-16T07:40:48;8.55;;;2.70;;
64959;SDS011;51487;52.266;10.542;2024-01-16T07:43:14;7.78;;;2.92;;
64959;SDS011;51487;52.266;10.542;2024-01-16T07:45:39;7.60;;;3.03;;
64959;SDS011;51487;52.266;10.542;2024-01-16T07:48:05;9.15;;;3.10;;
64959;SDS011;51487;52.266;10.542;2024-01-16T07:50:30;7.20;;;2.65;;
64959;SDS011;51487;52.266;10.542;2024-01-16T07:52:56;7.53;;;2.90;;
64959;SDS011;51487;52.266;10.542;2024-01-16T07:55:21;7.68;;;3.00;;
64959;SDS011;51487;52.266;10.542;2024-01-16T07:57:47;9.20;;;2.85;;
64959;SDS011;51487;52.266;10.542;2024-01-16T08:00:12;9.18;;;3.65;;
64959;SDS011;51487;52.266;10.542;2024-01-16T08:02:38;10.02;;;3.08;;
64959;SDS011;51487;52.266;10.542;2024-01-16T08:05:04;5.22;;;3.38;;
64959;SDS011;51487;52.266;10.542;2024-01-16T08:07:30;6.60;;;3.42;;
64959;SDS011;51487;52.266;10.542;2024-01-16T08:09:56;6.93;;;3.75;;
64959;SDS011;51487;52.266;10.542;2024-01-16T08:12:22;6.68;;;3.55;;
64959;SDS011;51487;52.266;10.542;2024-01-16T08:14:47;8.43;;;3.63;;
64959;SDS011;51487;52.266;10.542;2024-01-16T08:17:13;6.43;;;3.50;;
64959;SDS011;51487;52.266;10.542;2024-01-16T08:19:38;7.97;;;3.40;;
64959;SDS011;51487;52.266;10.542;2024-01-16T08:22:04;6.90;;;3.75;;
64959;SDS011;51487;52.266;10.542;2024-01-16T08:24:29;5.30;;;3.60;;
64959;SDS011;51487;52.266;10.542;2024-01-16T08:26:56;9.55;;;4.03;;
64959;SDS011;51487;52.266;10.542;2024-01-16T08:29:22;5.53;;;3.53;;
64959;SDS011;51487;52.266;10.542;2024-01-16T08:31:49;8.07;;;3.70;;
64959;SDS011;51487;52.266;10.542;2024-01-16T08:34:16;9.75;;;3.60;;
64959;SDS011;51487;52.266;10.542;2024-01-16T08:36:41;8.50;;;3.58;;
64959;SDS011;51487;52.266;10.542;2024-01-16T08:39:07;7.45;;;3.85;;
64959;SDS011;51487;52.266;10.542;2024-01-16T08:41:32;8.77;;;3.63;;
64959;SDS011;51487;52.266;10.542;2024-01-16T08:43:58;6.80;;;3.33;;
64959;SDS011;51487;52.266;10.542;2024-01-16T08:46:23;8.75;;;3.35;;
64959;SDS011;51487;52.266;10.542;2024-01-16T08:48:49;5.40;;;3.40;;
64959;SDS011;51487;52.266;10.542;2024-01-16T08:51:14;7.85;;;3.38;;
64959;SDS011;51487;52.266;10.542;2024-01-16T08:53:40;5.72;;;3.35;;
64959;SDS011;51487;52.266;10.542;2024-01-16T08:56:05;7.63;;;3.80;;
64959;SDS011;51487;52.266;10.542;2024-01-16T08:58:34;5.80;;;3.72;;
64959;SDS011;51487;52.266;10.542;2024-01-16T09:01:02;8.68;;;3.97;;
64959;SDS011;51487;52.266;10.542;2024-01-16T09:03:30;5.40;;;2.88;;
64959;SDS011;51487;52.266;10.542;2024-01-16T09:05:57;5.22;;;3.72;;
64959;SDS011;51487;52.266;10.542;2024-01-16T09:08:23;6.03;;;3.00;;
64959;SDS011;51487;52.266;10.542;2024-01-16T09:10:48;7.68;;;3.35;;
64959;SDS011;51487;52.266;10.542;2024-01-16T09:13:14;7.72;;;3.47;;
64959;SDS011;51487;52.266;10.542;2024-01-16T09:15:39;6.35;;;2.85;;
64959;SDS011;51487;52.266;10.542;2024-01-16T09:18:05;6.97;;;3.13;;
64959;SDS011;51487;52.266;10.542;2024-01-16T09:20:31;6.60;;;3.42;;
64959;SDS011;51487;52.266;10.542;2024-01-16T09:22:57;8.00;;;3.10;;
64959;SDS011;51487;52.266;10.542;2024-01-16T09:25:22;8.68;;;3.58;;
64959;SDS011;51487;52.266;10.542;2024-01-16T09:27:52;7.60;;;3.35;;
64959;SDS011;51487;52.266;10.542;2024-01-16T09:30:18;9.93;;;3.45;;
64959;SDS011;51487;52.266;10.542;2024-01-16T09:32:44;7.07;;;3.55;;
64959;SDS011;51487;52.266;10.542;2024-01-16T09:35:10;4.93;;;3.13;;
64959;SDS011;51487;52.266;10.542;2024-01-16T09:37:36;7.22;;;3.60;;
64959;SDS011;51487;52.266;10.542;2024-01-16T09:40:01;6.78;;;3.10;;
64959;SDS011;51487;52.266;10.542;2024-01-16T09:42:30;6.50;;;3.00;;
64959;SDS011;51487;52.266;10.542;2024-01-16T09:44:56;7.15;;;2.97;;
64959;SDS011;51487;52.266;10.542;2024-01-16T09:47:24;5.80;;;2.78;;
64959;SDS011;51487;52.266;10.542;2024-01-16T09:49:50;4.88;;;3.17;;
64959;SDS011;51487;52.266;10.542;2024-01-16T09:52:16;7.60;;;3.90;;
64959;SDS011;51487;52.266;10.542;2024-01-16T09:54:42;7.38;;;3.80;;
64959;SDS011;51487;52.266;10.542;2024-01-16T09:57:08;7.28;;;3.30;;
64959;SDS011;51487;52.266;10.542;2024-01-16T09:59:37;6.55;;;3.20;;
64959;SDS011;51487;52.266;10.542;2024-01-16T10:02:06;4.65;;;3.50;;
64959;SDS011;51487;52.266;10.542;2024-01-16T10:04:35;8.52;;;3.25;;
64959;SDS011;51487;52.266;10.542;2024-01-16T10:07:01;6.57;;;3.25;;
64959;SDS011;51487;52.266;10.542;2024-01-16T10:09:29;6.07;;;3.22;;
64959;SDS011;51487;52.266;10.542;2024-01-16T10:11:54;11.57;;;3.50;;
64959;SDS011;51487;52.266;10.542;2024-01-16T10:14:20;8.20;;;3.20;;
64959;SDS011;51487;52.266;10.542;2024-01-16T10:16:59;5.57;;;3.15;;
64959;SDS011;51487;52.266;10.542;2024-01-16T10:19:47;6.27;;;3.90;;
64959;SDS011;51487;52.266;10.542;2024-01-16T10:22:23;5.32;;;3.08;;
64959;SDS011;51487;52.266;10.542;2024-01-16T10:25:06;8.68;;;3.45;;
64959;SDS011;51487;52.266;10.542;2024-01-16T10:27:34;5.78;;;3.10;;
64959;SDS011;51487;52.266;10.542;2024-01-16T10:30:01;6.07;;;3.17;;
64959;SDS011;51487;52.266;10.542;2024-01-16T10:32:31;8.13;;;3.80;;
64959;SDS011;51487;52.266;10.542;2024-01-16T10:35:09;9.68;;;3.60;;
64959;SDS011;51487;52.266;10.542;2024-01-16T10:40:19;5.90;;;3.65;;
64959;SDS011;51487;52.266;10.542;2024-01-16T10:42:49;10.13;;;3.67;;
64959;SDS011;51487;52.266;10.542;2024-01-16T10:45:22;7.35;;;4.65;;
64959;SDS011;51487;52.266;10.542;2024-01-16T10:47:49;6.03;;;3.28;;
64959;SDS011;51487;52.266;10.542;2024-01-16T10:50:29;6.55;;;3.40;;
64959;SDS011;51487;52.266;10.542;2024-01-16T10:52:55;10.05;;;4.18;;
64959;SDS011;51487;52.266;10.542;2024-01-16T10:55:23;7.07;;;3.65;;
64959;SDS011;51487;52.266;10.542;2024-01-16T10:57:49;9.75;;;4.15;;
64959;SDS011;51487;52.266;10.542;2024-01-16T11:00:19;8.95;;;3.70;;
64959;SDS011;51487;52.266;10.542;2024-01-16T11:02:51;6.05;;;3.45;;
64959;SDS011;51487;52.266;10.542;2024-01-16T11:05:42;6.10;;;3.30;;
64959;SDS011;51487;52.266;10.542;2024-01-16T11:08:09;6.18;;;3.65;;
64959;SDS011;51487;52.266;10.542;2024-01-16T11:10:41;8.80;;;4.03;;
64959;SDS011;51487;52.266;10.542;2024-01-16T11:13:08;7.32;;;3.90;;
64959;SDS011;51487;52.266;10.542;2024-01-16T11:15:36;9.18;;;3.75;;
64959;SDS011;51487;52.266;10.542;2024-01-16T11:18:03;5.78;;;3.58;;
64959;SDS011;51487;52.266;10.542;2024-01-16T11:20:30;8.15;;;3.70;;
64959;SDS011;51487;52.266;10.542;2024-01-16T11:22:59;6.18;;;3.97;;
64959;SDS011;51487;52.266;10.542;2024-01-16T11:25:32;10.15;;;4.30;;
64959;SDS011;51487;52.266;10.542;2024-01-16T11:28:11;8.07;;;3.72;;
64959;SDS011;51487;52.266;10.542;2024-01-16T11:30:39;11.13;;;3.97;;
64959;SDS011;51487;52.266;10.542;2024-01-16T11:33:05;8.15;;;4.07;;
64959;SDS011;51487;52.266;10.542;2024-01-16T11:35:34;6.30;;;3.60;;
64959;SDS011;51487;52.266;10.542;2024-01-16T11:38:10;6.10;;;3.65;;
64959;SDS011;51487;52.266;10.542;2024-01-16T11:40:42;10.77;;;5.28;;
64959;SDS011;51487;52.266;10.542;2024-01-16T11:43:50;7.63;;;3.45;;
64959;SDS011;51487;52.266;10.542;2024-01-16T11:46:05;8.80;;;3.60;;
64959;SDS011;51487;52.266;10.542;2024-01-16T11:48:32;8.60;;;3.50;;
64959;SDS011;51487;52.266;10.542;2024-01-16T11:50:58;10.02;;;3.75;;
64959;SDS011;51487;52.266;10.542;2024-01-16T12:02:02;7.00;;;3.40;;
64959;SDS011;51487;52.266;10.542;2024-01-16T12:04:37;6.53;;;3.70;;
64959;SDS011;51487;52.266;10.542;2024-01-16T12:07:03;5.75;;;3.40;;
64959;SDS011;51487;52.266;10.542;2024-01-16T12:09:28;5.50;;;3.30;;
64959;SDS011;51487;52.266;10.542;2024-01-16T12:11:58;6.75;;;3.35;;
64959;SDS011;51487;52.266;10.542;2024-01-16T12:14:26;8.45;;;3.58;;
64959;SDS011;51487;52.266;10.542;2024-01-16T12:16:53;6.53;;;3.20;;
64959;SDS011;51487;52.266;10.542;2024-01-16T12:19:36;8.55;;;3.40;;
64959;SDS011;51487;52.266;10.542;2024-01-16T12:22:05;5.50;;;3.13;;
64959;SDS011;51487;52.266;10.542;2024-01-16T12:24:34;7.45;;;3.53;;
64959;SDS011;51487;52.266;10.542;2024-01-16T12:27:01;6.55;;;3.47;;
64959;SDS011;51487;52.266;10.542;2024-01-16T12:29:26;6.38;;;3.40;;
64959;SDS011;51487;52.266;10.542;2024-01-16T12:32:04;6.40;;;3.42;;
64959;SDS011;51487;52.266;10.542;2024-01-16T12:34:33;6.85;;;3.70;;
64959;SDS011;51487;52.266;10.542;2024-01-16T12:37:06;6.63;;;3.22;;
64959;SDS011;51487;52.266;10.542;2024-01-16T12:39:32;6.80;;;3.50;;
64959;SDS011;51487;52.266;10.542;2024-01-16T12:42:00;7.28;;;3.63;;
64959;SDS011;51487;52.266;10.542;2024-01-16T12:44:29;4.45;;;3.22;;
64959;SDS011;51487;52.266;10.542;2024-01-16T12:46:55;5.68;;;3.45;;
64959;SDS011;51487;52.266;10.542;2024-01-16T12:49:22;5.47;;;3.10;;
64959;SDS011;51487;52.266;10.542;2024-01-16T12:51:49;12.18;;;3.90;;
64959;SDS011;51487;52.266;10.542;2024-01-16T12:54:16;11.38;;;3.50;;
64959;SDS011;51487;52.266;10.542;2024-01-16T12:56:47;6.68;;;3.53;;
64959;SDS011;51487;52.266;10.542;2024-01-16T12:59:13;4.68;;;3.55;;
64959;SDS011;51487;52.266;10.542;2024-01-16T13:01:40;6.30;;;3.70;;
64959;SDS011;51487;52.266;10.542;2024-01-16T13:04:09;7.43;;;3.70;;
64959;SDS011;51487;52.266;10.542;2024-01-16T13:06:41;5.65;;;3.45;;
64959;SDS011;51487;52.266;10.542;2024-01-16T13:09:11;6.65;;;3.58;;
64959;SDS011;51487;52.266;10.542;2024-01-16T13:11:50;8.15;;;3.60;;
64959;SDS011;51487;52.266;10.542;2024-01-16T13:14:18;8.73;;;3.97;;
64959;SDS011;51487;52.266;10.542;2024-01-16T13:16:46;6.28;;;3.80;;
64959;SDS011;51487;52.266;10.542;2024-01-16T13:19:15;5.75;;;3.90;;
64959;SDS011;51487;52.266;10.542;2024-01-16T13:21:42;7.60;;;4.43;;
64959;SDS011;51487;52.266;10.542;2024-01-16T13:24:07;7.47;;;4.75;;
64959;SDS011;51487;52.266;10.542;2024-01-16T13:26:33;6.10;;;4.68;;
64959;SDS011;51487;52.266;10.542;2024-01-16T13:28:59;9.18;;;5.47;;
64959;SDS011;51487;52.266;10.542;2024-01-16T13:31:25;10.32;;;5.63;;
64959;SDS011;51487;52.266;10.542;2024-01-16T13:33:51;8.57;;;5.50;;
64959;SDS011;51487;52.266;10.542;2024-01-16T13:36:16;10.52;;;6.18;;
64959;SDS011;51487;52.266;10.542;2024-01-16T13:38:42;8.35;;;6.25;;
64959;SDS011;51487;52.266;10.542;2024-01-16T13:41:07;11.23;;;6.78;;
64959;SDS011;51487;52.266;10.542;2024-01-16T13:43:33;11.52;;;7.07;;
64959;SDS011;51487;52.266;10.542;2024-01-16T13:45:58;9.38;;;6.55;;
64959;SDS011;51487;52.266;10.542;2024-01-16T13:48:24;9.57;;;7.18;;
64959;SDS011;51487;52.266;10.542;2024-01-16T13:50:50;10.85;;;6.95;;
64959;SDS011;51487;52.266;10.542;2024-01-16T13:53:16;9.43;;;7.30;;
64959;SDS011;51487;52.266;10.542;2024-01-16T13:55:41;11.18;;;7.15;;
64959;SDS011;51487;52.266;10.542;2024-01-16T13:58:07;9.85;;;7.68;;
64959;SDS011;51487;52.266;10.542;2024-01-16T14:00:33;10.48;;;7.72;;
64959;SDS011;51487;52.266;10.542;2024-01-16T14:02:59;15.60;;;8.50;;
64959;SDS011;51487;52.266;10.542;2024-01-16T14:05:24;12.43;;;7.75;;
64959;SDS011;51487;52.266;10.542;2024-01-16T14:07:51;10.90;;;7.53;;
64959;SDS011;51487;52.266;10.542;2024-01-16T14:10:18;13.43;;;8.35;;
64959;SDS011;51487;52.266;10.542;2024-01-16T14:12:46;12.93;;;9.57;;
64959;SDS011;51487;52.266;10.542;2024-01-16T14:15:14;13.40;;;8.48;;
64959;SDS011;51487;52.266;10.542;2024-01-16T14:17:44;14.13;;;8.50;;
64959;SDS011;51487;52.266;10.542;2024-01-16T14:20:11;14.80;;;8.88;;
64959;SDS011;51487;52.266;10.542;2024-01-16T14:22:38;12.32;;;8.40;;
64959;SDS011;51487;52.266;10.542;2024-01-16T14:25:08;11.30;;;9.10;;
64959;SDS011;51487;52.266;10.542;2024-01-16T14:27:40;10.93;;;8.90;;
64959;SDS011;51487;52.266;10.542;2024-01-16T14:30:09;13.45;;;9.20;;
64959;SDS011;51487;52.266;10.542;2024-01-16T14:32:38;14.00;;;9.02;;
64959;SDS011;51487;52.266;10.542;2024-01-16T14:35:06;13.27;;;9.15;;
64959;SDS011;51487;52.266;10.542;2024-01-16T14:37:34;12.32;;;9.05;;
64959;SDS011;51487;52.266;10.542;2024-01-16T14:40:03;14.48;;;10.25;;
64959;SDS011;51487;52.266;10.542;2024-01-16T14:42:50;16.42;;;8.30;;